Tiempo atmosférico en la estación meteorológica de Teguise, Las Palmas (19 m.)



Fecha
DESCASC
Temp. máxima en grados centígrados (hora)
DESCASC
Temp. mínima en grados centígrados (hora)
DESCASC
Temp. media en grados centígrados
DESCASC
Racha de viento máxima en m/sg (hora)
DESCASC
Velocidad máxima media en intervalos de 10 minutos(hora)
DESCASC
Precipitaciones diarias en mm
DESCASC
Precipitaciones de 00:00 a 06:00 en mm
DESCASC
Precipitaciones de 06:00 a 12:00 en mm
DESCASC
Precipitaciones de 12:00 a 18:00 en mm
DESCASC
Precipitaciones de 18:00 a 24:00 en mm
DESCASC
26-03-2020 19.5 (12:00) 12.9 (06:40) 16.2 8.06 (16:20) 6.39 (16:30) 0.6 0 0 0.2 0.4
25-03-2020 21 (15:40) 14.5 (04:20) 17.8 10.56 (11:20) 6.39 (08:20) 0.4 0.4 0 0 0
24-03-2020 21.5 (14:50) 14.4 (00:50) 17.9 12.22 (00:40) 8.61 (10:40) 1.4 0.6 0.2 0 0.6
23-03-2020 19.5 (14:30) 11.7 (07:10) 15.6 12.5 (11:50) 8.89 (11:40) 4.4 3.4 0 0.8 0.2
22-03-2020 21.1 (15:40) 14.3 (23:40) 17.7 -- (--) -- (--) 3 0 0 0.4 2.6
21-03-2020 20.7 (15:10) 15.3 (00:00) 18 11.67 (04:30) 7.5 (04:40) 0 0 0 0 0
20-03-2020 21.7 (12:20) 16.4 (00:00) 19.1 -- (--) -- (--) 0 0 0 0 0
19-03-2020 21.7 (13:00) 15.6 (00:00) 18.7 12.5 (16:30) 8.33 (16:50) 0 0 0 0 0
18-03-2020 20.4 (14:00) 14.9 (00:00) 17.6 15.56 (19:10) 9.44 (19:10) 0.6 0.2 0 0 0.4
17-03-2020 20.1 (12:50) 14.2 (00:00) 17.2 -- (--) -- (--) 0.2 0.2 0 0 0
16-03-2020 21.7 (12:40) 15.6 (00:00) 18.7 -- (--) -- (--) 0 0 0 0 0
15-03-2020 21.5 (16:00) 15 (00:00) 18.3 -- (--) -- (--) 0 0 0 0 0
14-03-2020 21.3 (14:10) 16 (00:00) 18.6 -- (--) -- (--) 0 0 0 0 0
13-03-2020 22.2 (12:50) 17 (05:40) 19.6 -- (--) -- (--) 0 0 0 0 0
12-03-2020 22.3 (14:10) 16.4 (00:00) 19.3 12.5 (02:30) 10.28 (02:10) 0 0 0 0 0
11-03-2020 22.4 (14:40) 16.1 (00:00) 19.3 -- (--) -- (--) 0 0 0 0 0
10-03-2020 22.6 (13:20) 16 (00:00) 19.3 12.5 (11:20) 10.83 (11:20) 0 0 0 0 0
09-03-2020 22.5 (12:20) 16.6 (00:00) 19.6 -- (--) -- (--) 0 0 0 0 0
08-03-2020 22.3 (13:40) 16.8 (00:00) 19.5 -- (--) -- (--) 0 0 0 0 0
07-03-2020 21.6 (12:40) 16.4 (00:00) 19 -- (--) -- (--) 0 0 0 0 0
06-03-2020 21.4 (13:20) 16.2 (00:00) 18.8 18.61 (12:20) 13.61 (14:30) 0.2 0.2 0 0 0
05-03-2020 20.5 (12:50) 16.7 (00:00) 18.6 13.61 (23:30) 9.72 (23:30) 0 0 0 0 0
04-03-2020 22.6 (12:40) 16 (00:00) 19.3 -- (--) -- (--) 0 0 0 0 0
03-03-2020 22.2 (13:10) 16.3 (00:00) 19.3 -- (--) -- (--) 0 0 0 0 0
02-03-2020 22.8 (12:40) 16 (00:00) 19.4 -- (--) -- (--) 0 0 0 0 0
01-03-2020 22.6 (12:30) 16.2 (00:00) 19.4 -- (--) -- (--) 0 0 0 0 0
29-02-2020 22 (13:00) 15.9 (00:00) 18.9 -- (--) -- (--) 0 0 0 0 0
28-02-2020 21.2 (16:00) 13.1 (00:00) 17.2 -- (--) -- (--) 0 0 0 0 0

Gráficas

Temp. máximas Temp. mínimas Temp. medias Precipitaciones Rachas de viento máximas Velocidades máximas media en intervalos de 10 minutos

Datos horarios

Fecha y hora oficial Temperatura (ºC) Velocidad del viento (km/h) Dirección del viento Racha (km/h) Dirección de racha Precipitación (mm) Presión (hPa) Tendencia (hPa) Humedad (%)
2020-03-28 23:00:00 15.7 10 Norte 13 Norte 0 1017.8 1.3 82
2020-03-28 22:00:00 15.9 10 Norte 14 Norte 0 1017.8 2 79
2020-03-28 21:00:00 17 10 Norte 15 Norte 0 1017.2 1.8 76
2020-03-28 20:00:00 17.8 10 Norte 17 Nordeste 0 1016.5 1.5 72
2020-03-28 19:00:00 18.5 12 Noroeste 22 Norte 0 1015.8 1.2 67
2020-03-28 18:00:00 19.9 15 Norte -- -- 0 1015.4 0.9 60
2020-03-28 17:00:00 20.8 16 Norte 24 Norte 0 1015 0.2 61
2020-03-28 16:00:00 20.5 18 Noroeste 25 Oeste 0 1014.6 -0.4 62
2020-03-28 15:00:00 21.8 15 Noroeste 35 Noroeste 0 1014.5 -0.8 56
2020-03-28 14:00:00 21.2 19 Oeste 26 Noroeste 0 1014.8 -0.7 60
2020-03-28 13:00:00 20.7 14 Este 25 Nordeste 0 1015 -0.4 59
2020-03-28 12:00:00 21.9 19 Nordeste 26 Nordeste 0 1015.3 0.5 56
2020-03-28 11:00:00 20.6 14 Nordeste 22 Nordeste 0 1015.5 1.4 59
2020-03-28 10:00:00 18.6 6 Sur 12 Sur 0 1015.4 1.8 72
2020-03-28 09:00:00 18.7 3 Norte 10 Nordeste 0 1014.8 2 72
2020-03-28 08:00:00 14.9 6 Norte 9 Norte 0 1014.1 1.5 86
2020-03-28 07:00:00 13.9 7 Norte 9 Norte 0 1013.6 1.5 87
2020-03-28 06:00:00 13.8 9 Norte 11 Norte 0 1012.8 0.6 87
2020-03-28 05:00:00 13.9 8 Norte 10 Norte 0 1012.6 0 89
2020-03-28 04:00:00 13.5 6 Noroeste 10 Noroeste 0 1012.1 -0.4 86
2020-03-28 03:00:00 14.8 6 Noroeste 9 Noroeste 0 1012.2 -0.8 86
2020-03-28 02:00:00 14.5 6 Noroeste 8 Noroeste 0 1012.6 -0.5 85
2020-03-28 01:00:00 14.2 5 Norte 9 Norte 0 1012.5 -0.3 85
2020-03-28 00:00:00 15.5 8 Norte 13 Noroeste 0 1013 0.4 79
2020-03-27 23:00:00 15.5 7 Noroeste 11 Noroeste 0 1013.1 1.2 79
2020-03-27 22:00:00 16 5 Noroeste 9 Noroeste 0 1012.8 1.4 81
2020-03-27 21:00:00 15.8 5 Noroeste 8 Noroeste 0 1012.6 1.5 79
2020-03-27 20:00:00 16.8 5 Noroeste 13 Noroeste 0 1011.9 0.9 75
2020-03-27 19:00:00 17.8 10 Oeste 17 Oeste 0 1011.4 0.5 70
2020-03-27 18:00:00 18.7 10 Noroeste 21 Noroeste 0 1011.1 0.2 66
2020-03-27 17:00:00 20.1 13 Noroeste 22 Oeste 0 1011 -0.4 62
2020-03-27 16:00:00 20 13 Oeste 22 Oeste 0 1010.9 -0.8 63
2020-03-27 15:00:00 20.3 14 Noroeste 26 Noroeste 0 1010.9 -1.4 60
2020-03-27 14:00:00 20.6 13 Oeste 24 Oeste 0 1011.4 -0.7 60
2020-03-27 13:00:00 19.8 11 Noroeste 25 Oeste 0 1011.7 -0.2 61
2020-03-27 12:00:00 20.2 16 Noroeste 25 Oeste 0 1012.3 0.8 62
2020-03-27 11:00:00 19.9 15 Noroeste 23 Oeste 0 1012.1 1.2 63
2020-03-27 10:00:00 19.2 14 Noroeste 24 Noroeste 0 1011.9 1.7 65
2020-03-27 09:00:00 18.2 14 Noroeste 24 Oeste 0 1011.5 1.4 73
2020-03-27 08:00:00 17.3 13 Noroeste 20 Noroeste 0 1010.9 0.9 76
2020-03-27 07:00:00 16.1 10 Noroeste 17 Noroeste 0 1010.2 -0.1 82
2020-03-27 06:00:00 16.2 13 Noroeste 19 Noroeste 0 1010.1 -0.4 85
2020-03-27 05:00:00 15.2 8 Oeste 14 Noroeste 0 1010 -1.2 85
2020-03-27 04:00:00 14.5 10 Noroeste 14 Noroeste 0 1010.3 -1.1 87
2020-03-27 03:00:00 15.4 8 Noroeste 14 Noroeste 0 1010.5 -1.3 84
2020-03-27 02:00:00 15.1 10 Noroeste 13 Noroeste 0 1011.2 -0.7 85
2020-03-27 01:00:00 15.4 10 Noroeste 12 Noroeste 0 1011.4 -0.5 85
2020-03-27 00:00:00 15.4 10 Norte 14 Noroeste 0 1011.8 -0.2 88
2020-03-26 23:00:00 15.6 12 Noroeste 15 Noroeste 0 1011.9 0.3 86
2020-03-26 22:00:00 16 10 Norte 14 Norte 0 1011.9 0.3 86
2020-03-26 21:00:00 16.2 7 Norte 14 Norte 0.2 1012 0.6 87
2020-03-26 20:00:00 16.2 10 Norte 12 Noroeste 0 1011.6 0.2 88
2020-03-26 19:00:00 16.8 4 Norte 14 Norte 0.2 1011.6 0.2 86
2020-03-26 18:00:00 16.6 15 Noroeste 22 Noroeste 0.2 1011.4 -0.5 79
2020-03-26 17:00:00 17.9 12 Norte 29 Norte 0 1011.4 -1 76
2020-03-26 16:00:00 18.7 16 Noroeste 22 Noroeste 0 1011.4 -1.6 71
2020-03-26 15:00:00 18.9 14 Oeste 20 Oeste 0 1011.9 -1.5 69
2020-03-26 14:00:00 18.8 13 Noroeste 21 Noroeste 0 1012.4 -1.2 67
2020-03-26 13:00:00 18.3 13 Noroeste 22 Noroeste 0 1013 -0.7 72
2020-03-26 12:00:00 19.4 16 Noroeste 23 Noroeste 0 1013.4 0.1 63
2020-03-26 11:00:00 19.1 12 Noroeste 22 Noroeste 0 1013.6 0.4 64
2020-03-26 10:00:00 18.3 11 Noroeste 17 Noroeste 0 1013.7 0.8 68
2020-03-26 09:00:00 17.7 10 Norte 15 Noroeste 0 1013.3 1.1 70
2020-03-26 08:00:00 15.4 8 Norte 12 Norte 0 1013.2 1.4 81
2020-03-26 07:00:00 13 9 Norte 11 Norte 0 1012.9 0.7 85
2020-03-26 06:00:00 13.3 11 Norte 13 Norte 0 1012.2 -0.5 83
2020-03-26 05:00:00 13.7 11 Norte 14 Norte 0 1011.8 -1.9 82
2020-03-26 04:00:00 13.8 10 Norte 16 Norte 0 1012.2 -1.9 83
2020-03-26 03:00:00 14.2 11 Norte 17 Norte 0 1012.7 -1.8 81
2020-03-26 02:00:00 14.7 12 Norte 16 Norte 0 1013.7 -1.2 78
2020-03-26 01:00:00 15.2 13 Norte 19 Norte 0 1014.1 -0.7 75
2020-03-26 00:00:00 15.6 14 Norte 19 Norte 0 1014.5 0 74
2020-03-25 23:00:00 15.6 12 Norte 17 Norte 0 1014.9 0.8 74
2020-03-25 22:00:00 16.4 13 Norte 21 Norte 0 1014.8 1.2 74
2020-03-25 21:00:00 16.4 14 Norte 21 Norte 0 1014.5 1 73
2020-03-25 20:00:00 16.5 12 Norte 22 Norte 0 1014.1 0.6 71
2020-03-25 19:00:00 17.2 15 Norte 27 Nordeste 0 1013.6 -0.6 67
2020-03-25 18:00:00 18.7 21 Nordeste 32 Norte 0 1013.5 -1 61
2020-03-25 17:00:00 19.9 21 Norte 30 Noroeste 0 1013.5 -1.4 58
2020-03-25 16:00:00 20.4 19 Noroeste 31 Noroeste 0 1014.2 -1 54
2020-03-25 15:00:00 20.5 17 Norte 29 Noroeste 0 1014.5 -0.9 55
2020-03-25 14:00:00 20.3 17 Noroeste 26 Noroeste 0 1014.9 -0.7 58
2020-03-25 13:00:00 18.5 15 Norte 31 Norte 0 1015.2 -0.1 65
2020-03-25 12:00:00 18.8 14 Norte 38 Norte 0 1015.4 0.6 64
2020-03-25 11:00:00 20 17 Norte 28 Norte 0 1015.6 1.6 57
2020-03-25 10:00:00 18.4 18 Nordeste 28 Nordeste 0 1015.3 2 67
2020-03-25 09:00:00 18.6 20 Norte 30 Norte 0 1014.8 1.7 65
2020-03-25 08:00:00 17 19 Norte 28 Norte 0 1014 1 70
2020-03-25 07:00:00 15.7 21 Norte 30 Norte 0 1013.3 0.3 75
2020-03-25 06:00:00 15.7 19 Norte 27 Norte 0 1013.1 -0.1 72
2020-03-25 05:00:00 15.1 17 Norte 26 Norte 0 1013 -0.5 76
2020-03-25 04:00:00 14.8 12 Norte 26 Norte 0 1013 -1.1 78
2020-03-25 03:00:00 15.7 18 Norte 26 Norte 0 1013.2 -1.3 74
2020-03-25 02:00:00 15.5 17 Norte 24 Norte 0 1013.5 -1 79
2020-03-25 01:00:00 15.7 15 Norte 24 Norte 0.4 1014.1 -0.4 81
2020-03-25 00:00:00 15.6 10 Norte 24 Norte 0 1014.5 0.3 78
2020-03-24 23:00:00 15.4 11 Norte 18 Norte 0 1014.5 0.7 78
2020-03-24 22:00:00 15.9 13 Norte 27 Norte 0 1014.5 1.2 77
2020-03-24 21:00:00 16.4 14 Noroeste 24 Norte 0 1014.2 1.3 79
2020-03-24 20:00:00 16.3 14 Norte 44 Noroeste 0.6 1013.8 1.2 77
2020-03-24 19:00:00 17 23 Norte 35 Noroeste 0 1013.3 0.6 80
2020-03-24 18:00:00 19 23 Noroeste 36 Norte 0 1012.9 0.1 62
2020-03-24 17:00:00 20.1 23 Noroeste 40 Norte 0 1012.6 -0.3 57
2020-03-24 16:00:00 20.8 26 Noroeste 37 Noroeste 0 1012.7 -0.5 58
2020-03-24 15:00:00 21.3 23 Noroeste 37 Noroeste 0 1012.8 -0.6 56
2020-03-24 14:00:00 21.1 22 Noroeste 40 Norte 0 1012.9 -0.3 56
2020-03-24 13:00:00 20.4 26 Norte 43 Norte 0 1013.2 0.1 62
2020-03-24 12:00:00 20.2 29 Norte 44 Norte 0 1013.4 0.8 60
2020-03-24 11:00:00 19.4 22 Norte 43 Norte 0 1013.2 1 68
2020-03-24 10:00:00 16.7 23 Norte 36 Norte 0.2 1013.1 1.6 80
2020-03-24 09:00:00 18.5 24 Norte 37 Norte 0 1012.6 1.5 71
2020-03-24 08:00:00 17 22 Noroeste 33 Norte 0 1012.2 1.4 75
2020-03-24 07:00:00 16.3 21 Noroeste 35 Noroeste 0 1011.5 1.1 74
2020-03-24 06:00:00 16.1 17 Noroeste 33 Noroeste 0 1011.1 0.4 74
2020-03-24 05:00:00 15.9 19 Noroeste 30 Norte 0 1010.8 -0.1 74
2020-03-24 04:00:00 15.7 19 Norte 35 Noroeste 0 1010.4 -0.5 74
2020-03-24 03:00:00 15.5 18 Norte 31 Norte 0 1010.7 -0.3 73
2020-03-24 02:00:00 15.3 15 Norte 31 Norte 0 1010.9 -0.3 78
2020-03-24 01:00:00 15 17 Norte 44 Norte 0.6 1010.9 0 80
2020-03-24 00:00:00 16.7 18 Norte 32 Norte 0 1011 0.6 73
2020-03-23 23:00:00 16.7 18 Norte 33 Norte 0 1011.2 1.8 72
2020-03-23 22:00:00 16.6 18 Norte 29 Norte 0 1010.9 2 76
2020-03-23 21:00:00 16.1 18 Norte 41 Norte 0 1010.4 2 73
2020-03-23 20:00:00 16.3 24 Norte 44 Norte 0.2 1009.4 1.3 69
2020-03-23 19:00:00 16.8 19 Norte 40 Norte 0 1008.9 0.9 74
2020-03-23 18:00:00 17 30 Norte 42 Noroeste 0.8 1008.4 0.6 76
2020-03-23 17:00:00 18.8 21 Noroeste 36 Noroeste 0 1008.1 -0.1 64
2020-03-23 16:00:00 19.1 26 Noroeste 38 Norte 0 1008 -0.5 65
2020-03-23 15:00:00 18.6 24 Norte 39 Norte 0 1007.8 -1 65
2020-03-23 14:00:00 17.8 23 Norte 37 Norte 0 1008.2 0 66
2020-03-23 13:00:00 17.5 27 Norte 40 Norte 0 1008.5 0.5 64
2020-03-23 12:00:00 17.1 29 Norte 45 Norte 0 1008.8 2 72
2020-03-23 11:00:00 18.1 24 Nordeste 37 Norte 0 1008.2 1.8 65
2020-03-23 10:00:00 16.8 15 Norte 25 Norte 0 1008 1.9 68
2020-03-23 09:00:00 16.2 12 Nordeste 16 Nordeste 0 1006.8 1 71
2020-03-23 08:00:00 14.1 9 Norte 14 Norte 0 1006.4 1.1 87
2020-03-23 07:00:00 11.8 3 Nordeste 7 Oeste 0 1006.1 0.7 89
2020-03-23 06:00:00 12.6 3 Norte 17 Oeste 1.6 1005.8 0 88
2020-03-23 05:00:00 12.9 2 Este 17 Norte 0.8 1005.3 -1.3 93
2020-03-23 04:00:00 13.1 11 Norte 19 Norte 0 1005.4 -1.6 91
2020-03-23 03:00:00 13.7 4 Norte 14 Noroeste 0.6 1005.8 -1.8 93
2020-03-23 02:00:00 14.1 13 Oeste 23 Sudoeste 0 1006.6 -1.7 90
2020-03-23 01:00:00 13.9 19 Noroeste 37 Oeste 0.4 1007 -1.7 86
2020-03-23 00:00:00 14.4 2 Oeste 18 Oeste 0 1007.6 -1.4 91
2020-03-22 23:00:00 14.6 14 Oeste 35 Sudoeste 0.6 1008.3 -0.4 84
2020-03-22 22:00:00 15 12 Sudoeste 17 Sudoeste 0 1008.7 -0.3 88
2020-03-22 21:00:00 14.9 6 Sudoeste 9 Oeste 0 1009 -0.2 91
2020-03-22 20:00:00 15.1 4 Sudoeste 15 Noroeste 0 1008.7 -0.3 92
2020-03-22 19:00:00 15.3 11 Noroeste 35 Oeste 2 1009 -0.7 93
2020-03-22 18:00:00 16.3 22 Oeste 50 Oeste 0.4 1009.2 -1.2 88
2020-03-22 17:00:00 20.1 23 Sudoeste 35 Sudoeste 0 1009 -2.3 56
2020-03-22 16:00:00 20.7 21 Oeste 33 Oeste 0 1009.7 -2.6 50
2020-03-22 15:00:00 21 -- -- -- -- 0 1010.4 -2.8 47
2020-03-22 14:00:00 19.5 -- -- -- -- 0 1011.3 -2.5 59
2020-03-22 13:00:00 20.5 14 Oeste 30 Sudoeste 0 1012.3 -1.9 51
2020-03-22 12:00:00 20.1 -- -- -- -- 0 1013.2 -0.7 49
2020-03-22 11:00:00 19.4 14 Oeste 22 Oeste 0 1013.8 0 50
2020-03-22 10:00:00 18.8 14 Noroeste 24 Noroeste 0 1014.2 0.5 50
2020-03-22 09:00:00 17.4 14 Noroeste 24 Noroeste 0 1013.9 0.3 56
2020-03-22 08:00:00 16.8 15 Noroeste 30 Norte 0 1013.8 0 60
2020-03-22 07:00:00 15.4 16 Norte 26 Noroeste 0 1013.7 -0.5 63
2020-03-22 06:00:00 15.8 19 Noroeste 31 Noroeste 0 1013.6 -1.4 64
2020-03-22 05:00:00 15.7 18 Noroeste 30 Noroeste 0 1013.8 -1.9 66
2020-03-22 04:00:00 15.8 15 Noroeste 37 Noroeste 0 1014.2 -2.1 59
2020-03-22 03:00:00 16 19 Noroeste 28 Norte 0 1015 -1.7 64
2020-03-22 02:00:00 15.9 17 Noroeste 24 Norte 0 1015.7 -1.4 62
2020-03-22 01:00:00 15.5 18 Norte 31 Noroeste 0 1016.3 -1.2 60
2020-03-22 00:00:00 15.5 19 Norte 33 Noroeste 0 1016.7 -0.5 64
2020-03-21 23:00:00 15.9 16 Norte 35 Norte 0 1017.1 0.2 65
2020-03-21 22:00:00 15.8 15 Norte 27 Noroeste 0 1017.5 0.7 64
2020-03-21 21:00:00 15.8 19 Norte 33 Norte 0 1017.2 0.4 61
2020-03-21 20:00:00 16.7 24 Norte 32 Norte 0 1016.9 0.1 58
2020-03-21 19:00:00 16.6 18 Noroeste 35 Norte 0 1016.8 0 57
2020-03-21 18:00:00 17.8 24 Norte 33 Noroeste 0 1016.8 -0.4 55
2020-03-21 17:00:00 18.5 23 Norte 35 Norte 0 1016.8 -1.3 51
2020-03-21 16:00:00 19.4 24 Noroeste 37 Norte 0 1016.8 -2.2 48
2020-03-21 15:00:00 20.5 21 Norte 38 Norte 0 1017.2 -2.4 43
2020-03-21 14:00:00 19.1 22 Norte 37 Norte 0 1018.1 -1.5 52
2020-03-21 13:00:00 19.5 17 Noroeste 32 Noroeste 0 1019 -0.5 47
2020-03-21 12:00:00 19.1 22 Noroeste 38 Noroeste 0 1019.6 0.5 48
2020-03-21 11:00:00 19.2 22 Noroeste 31 Noroeste 0 1019.6 1.1 42
2020-03-21 10:00:00 18.4 18 Norte 29 Norte 0 1019.5 1.5 45
2020-03-21 09:00:00 17.3 24 Norte 34 Norte 0 1019.1 1.6 48
2020-03-21 08:00:00 16.6 23 Norte 36 Norte 0 1018.5 1.2 53
2020-03-21 07:00:00 16.3 24 Norte 40 Norte 0 1018 0.9 61
2020-03-21 06:00:00 16.5 15 Norte 31 Nordeste 0 1017.5 0.1 53
2020-03-21 05:00:00 16.2 23 Nordeste 42 Norte 0 1017.3 -0.9 53
2020-03-21 04:00:00 16.4 21 Norte 38 Nordeste 0 1017.1 -1.6 56
2020-03-21 03:00:00 16.2 18 Norte 37 Norte 0 1017.4 -1.6 54
2020-03-21 02:00:00 16.4 21 Norte 33 Norte 0 1018.2 -0.8 53
2020-03-21 01:00:00 16.4 20 Norte 30 Norte 0 1018.7 0.1 58
2020-03-21 00:00:00 16.7 21 Norte 32 Norte 0 1019 0.8 61
2020-03-20 23:00:00 16.6 19 Norte 37 Norte 0 1019 1.5 70
2020-03-20 22:00:00 16.9 27 Norte 38 Norte 0 1018.6 1.4 70
2020-03-20 21:00:00 16.6 24 Norte 38 Nordeste 0 1018.2 1.4 74
2020-03-20 20:00:00 17 27 Norte 40 Norte 0 1017.5 1.2 75
2020-03-20 19:00:00 16.5 26 Norte 39 Norte 0 1017.2 1.1 83
2020-03-20 18:00:00 18.5 22 Norte -- -- 0 1016.8 0.3 71
2020-03-20 17:00:00 20.6 -- -- -- -- 0 1016.3 -0.5 57
2020-03-20 16:00:00 21 27 Norte 40 Noroeste 0 1016.1 -1.2 53
2020-03-20 15:00:00 20.8 29 Norte 41 Norte 0 1016.5 -0.9 55
2020-03-20 14:00:00 21 28 Norte 37 Norte 0 1016.8 -0.5 53
2020-03-20 13:00:00 21 27 Noroeste 42 Noroeste 0 1017.3 0.5 56
2020-03-20 12:00:00 20.8 29 Norte 39 Norte 0 1017.4 1 58
2020-03-20 11:00:00 19.5 30 Norte 39 Noroeste 0 1017.3 1.8 66
2020-03-20 10:00:00 19 28 Norte 39 Norte 0 1016.8 2.3 72
2020-03-20 09:00:00 18.4 27 Norte 39 Noroeste 0 1016.4 2.1 75
2020-03-20 08:00:00 17.8 23 Norte 36 Norte 0 1015.5 1.4 80
2020-03-20 07:00:00 17.3 24 Norte 33 Noroeste 0 1014.5 0.6 81
2020-03-20 06:00:00 17.7 22 Noroeste 30 Noroeste 0 1014.3 0.1 80
2020-03-20 05:00:00 17.5 19 Norte 30 Norte 0 1014.1 -0.5 83
2020-03-20 04:00:00 17.9 19 Norte 35 Norte 0 1013.9 -1.3 78
2020-03-20 03:00:00 17.9 24 Norte 36 Norte 0 1014.2 -1.4 77
2020-03-20 02:00:00 17.8 23 Norte 35 Norte 0 1014.6 -1.2 74
2020-03-20 01:00:00 18.1 23 Norte 39 Norte 0 1015.2 -0.4 80
2020-03-20 00:00:00 18.1 23 Noroeste 42 Norte 0 1015.6 0.3 81
2020-03-19 23:00:00 18.3 24 Noroeste 39 Norte 0 1015.8 0.9 77
2020-03-19 22:00:00 18.2 23 Noroeste 41 Noroeste 0 1015.6 1 78
2020-03-19 21:00:00 18.4 24 Norte 36 Norte 0 1015.3 1.2 77
2020-03-19 20:00:00 18.1 22 Noroeste 34 Noroeste 0 1014.9 1.2 80
2020-03-19 19:00:00 18.5 24 Noroeste 41 Noroeste 0 1014.6 0.9 76
2020-03-19 18:00:00 19.2 26 Noroeste 37 Norte 0 1014.1 0.3 74
2020-03-19 17:00:00 19.8 26 Norte 45 Norte 0 1013.7 -0.7 71
2020-03-19 16:00:00 21.2 24 Noroeste 35 Noroeste 0 1013.7 -1.2 64
2020-03-19 15:00:00 21.3 22 Noroeste 34 Noroeste 0 1013.8 -0.9 63
2020-03-19 14:00:00 21.6 19 Noroeste 36 Noroeste 0 1014.4 -0.5 58
2020-03-19 13:00:00 21.2 24 Noroeste -- -- 0 1014.9 0.2 55
2020-03-19 12:00:00 20.7 19 Noroeste 35 Noroeste 0 1014.7 0.8 53
2020-03-19 11:00:00 19.6 22 Norte 35 Norte 0 1014.9 1.7 57
2020-03-19 10:00:00 19.7 21 Norte 34 Norte 0 1014.7 2.1 57
2020-03-19 09:00:00 18.5 22 Norte 32 Norte 0 1013.9 2.1 60
2020-03-19 08:00:00 16.6 18 Norte 28 Norte 0 1013.2 1.9 68
2020-03-19 07:00:00 15.6 22 Norte 32 Norte 0 1012.6 1.5 68
2020-03-19 06:00:00 15.9 22 Norte 35 Norte 0 1011.8 0.2 75
2020-03-19 05:00:00 16.3 19 Noroeste 33 Noroeste 0 1011.3 -0.9 75
2020-03-19 04:00:00 16.6 23 Noroeste 35 Noroeste 0 1011.1 -1.5 74
2020-03-19 03:00:00 17 21 Noroeste 37 Noroeste 0 1011.6 -1.5 69
2020-03-19 02:00:00 16.8 24 Noroeste 40 Noroeste 0 1012.2 -1 67
2020-03-19 01:00:00 16.6 26 Noroeste 41 Noroeste 0 1012.6 -0.6 65
2020-03-19 00:00:00 15.9 23 Norte 42 Noroeste 0 1013.1 0.2 66
2020-03-18 23:00:00 16 27 Norte 42 Norte 0 1013.2 0.5 66
2020-03-18 22:00:00 16.2 26 Norte 42 Norte 0 1013.2 0.8 64
2020-03-18 21:00:00 16.8 29 Noroeste 48 Norte 0 1012.9 0.4 71
2020-03-18 20:00:00 15.8 25 Noroeste 56 Noroeste 0.4 1012.7 0.3 77
2020-03-18 19:00:00 17.9 30 Noroeste 48 Noroeste 0 1012.4 -0.5 66
2020-03-18 18:00:00 18.5 30 Noroeste 44 Noroeste 0 1012.5 -1 59
2020-03-18 17:00:00 19.3 28 Noroeste 41 Noroeste 0 1012.4 -1.5 57
2020-03-18 16:00:00 19.2 23 Noroeste 36 Oeste 0 1012.9 -1.5 61
2020-03-18 15:00:00 19.6 25 Noroeste 37 Noroeste 0 1013.5 -1.5 52
2020-03-18 14:00:00 20.2 24 Noroeste 38 Noroeste 0 1013.9 -1.5 45
2020-03-18 13:00:00 19.8 22 Noroeste 34 Noroeste 0 1014.4 -1 46
2020-03-18 12:00:00 19.8 20 Noroeste 38 Norte 0 1015 -0.3 48
2020-03-18 11:00:00 19.5 27 Norte 40 Norte 0 1015.4 0.7 52
2020-03-18 10:00:00 18.6 29 Norte 45 Norte 0 1015.4 0.8 56
2020-03-18 09:00:00 16.8 26 Noroeste 41 Norte 0 1015.3 0.9 68
2020-03-18 08:00:00 16.5 22 Noroeste 33 Norte 0 1014.7 0.4 63
2020-03-18 07:00:00 15.2 20 Norte 31 Norte 0 1014.6 0 70
2020-03-18 06:00:00 15 24 Norte 41 Norte 0 1014.4 -0.5 78
2020-03-18 05:00:00 15.3 21 Noroeste 32 Noroeste 0.2 1014.3 -1.2 80
2020-03-18 04:00:00 15.3 22 Norte 45 Norte 0 1014.6 -1.4 70
2020-03-18 03:00:00 16.1 21 Norte 39 Norte 0 1014.9 -1.6 67
2020-03-18 02:00:00 16 21 Norte 32 Noroeste 0 1015.5 -1.6 68
2020-03-18 01:00:00 15.7 14 Norte 39 Norte 0 1016 -1.6 63
2020-03-18 00:00:00 16.3 21 Norte 35 Nordeste 0 1016.5 -1 55
2020-03-17 23:00:00 16.1 25 Norte 36 Norte 0 1017.1 0.4 60
2020-03-17 22:00:00 15.7 20 Norte 35 Norte 0 1017.6 1.4 67
2020-03-17 21:00:00 15.6 27 Norte 42 Noroeste 0 1017.5 1.6 70
2020-03-17 20:00:00 16.2 24 Norte 35 Norte 0 1016.7 1 61
2020-03-17 19:00:00 16.6 25 Norte 46 Norte 0 1016.2 0.4 55
2020-03-17 18:00:00 17.2 24 Norte 39 Norte 0 1015.9 -0.3 58
2020-03-17 17:00:00 17.7 27 Norte 44 Nordeste 0 1015.7 -0.6 54
2020-03-17 16:00:00 18.3 30 Norte 44 Norte 0 1015.8 -1.3 49
2020-03-17 15:00:00 18.7 30 Norte 45 Nordeste 0 1016.2 -1.6 50
2020-03-17 14:00:00 18.7 33 Nordeste 44 Nordeste 0 1016.3 -1.7 52
2020-03-17 13:00:00 19.2 31 Norte 46 Norte 0 1017.1 -1.2 56
2020-03-17 12:00:00 18.3 35 Norte 48 Norte 0 1017.8 0 56
2020-03-17 11:00:00 17.6 26 Norte 46 Nordeste 0 1018 0.5 59
2020-03-17 10:00:00 17.5 -- -- -- -- 0 1018.3 1.4 59
2020-03-17 09:00:00 16.8 -- -- -- -- 0 1017.8 1.1 59
2020-03-17 08:00:00 15.1 24 Norte 57 Norte 0 1017.5 1.4 75
2020-03-17 07:00:00 16.1 31 Norte 46 Norte 0 1016.9 0.9 59
2020-03-17 06:00:00 15.8 30 Norte 49 Norte 0 1016.7 0.5 65
2020-03-17 05:00:00 14.7 30 Nordeste -- -- 0.2 1016.1 -0.6 75
2020-03-17 04:00:00 15.3 -- -- -- -- 0 1016 -1.3 71
2020-03-17 03:00:00 16.3 35 Nordeste 50 Norte 0 1016.2 -1.3 55
2020-03-17 02:00:00 16.2 36 Norte -- -- 0 1016.7 -1.3 58
2020-03-17 01:00:00 16 -- -- -- -- 0 1017.3 -1.1 68
2020-03-17 00:00:00 16.3 30 Nordeste -- -- 0 1017.5 -0.7 66
2020-03-16 23:00:00 16.7 -- -- -- -- 0 1018 0.4 62
2020-03-16 22:00:00 16.7 -- -- -- -- 0 1018.4 1.4 54
2020-03-16 21:00:00 16 -- -- -- -- 0 1018.2 1.4 70
2020-03-16 20:00:00 16.9 35 Norte 49 Norte 0 1017.6 1.1 62
2020-03-16 19:00:00 17.2 30 Norte 46 Norte 0 1017 0.5 68
2020-03-16 18:00:00 17.7 34 Norte -- -- 0 1016.8 0.2 65
2020-03-16 17:00:00 18.1 -- -- -- -- 0 1016.5 -0.4 70
2020-03-16 16:00:00 18.4 -- -- -- -- 0 1016.5 -1 68
2020-03-16 15:00:00 19.5 -- -- -- -- 0 1016.6 -1.3 63
2020-03-16 14:00:00 20.5 -- -- -- -- 0 1016.9 -0.9 62
2020-03-16 13:00:00 21 -- -- -- -- 0 1017.5 -0.4 58
2020-03-16 12:00:00 21.2 -- -- -- -- 0 1017.9 0.3 54
2020-03-16 11:00:00 20.8 -- -- -- -- 0 1017.8 0.6 55
2020-03-16 10:00:00 20 36 Norte 49 Norte 0 1017.9 1.2 56
2020-03-16 09:00:00 18.1 36 Norte 50 Nordeste 0 1017.6 1.3 64
2020-03-16 08:00:00 17.6 32 Norte 48 Norte 0 1017.2 1.2 71
2020-03-16 07:00:00 17.3 28 Norte 45 Norte 0 1016.7 0.7 69
2020-03-16 06:00:00 17.2 25 Norte 39 Norte 0 1016.3 0.2 74
2020-03-16 05:00:00 17.1 23 Norte 40 Norte 0 1016 -0.3 74
2020-03-16 04:00:00 17.3 26 Norte 41 Nordeste 0 1016 -0.5 72
2020-03-16 03:00:00 17.4 24 Norte 39 Nordeste 0 1016.1 -0.4 73
2020-03-16 02:00:00 17.5 23 Norte 36 Norte 0 1016.3 -0.6 73
2020-03-16 01:00:00 17 26 Norte 46 Norte 0 1016.5 -0.4 74
2020-03-16 00:00:00 17.4 34 Norte 45 Norte 0 1016.5 -0.2 71
2020-03-15 23:00:00 17.7 32 Norte 49 Norte 0 1016.9 0.9 72
2020-03-15 22:00:00 18 24 Norte 33 Norte 0 1016.9 1.4 72
2020-03-15 21:00:00 17.9 23 Norte 34 Norte 0 1016.7 1.5 71
2020-03-15 20:00:00 17.7 20 Norte 32 Noroeste 0 1016 1 71
2020-03-15 19:00:00 18 22 Norte 33 Norte 0 1015.5 0.4 69
2020-03-15 18:00:00 19.1 24 Norte -- -- 0 1015.2 -0.1 62
2020-03-15 17:00:00 20.3 18 Norte 31 Norte 0 1015 -0.8 55
2020-03-15 16:00:00 21.5 20 Norte 37 Norte 0 1015.1 -1.3 49
2020-03-15 15:00:00 20.5 23 Norte 36 Norte 0 1015.3 -1.2 53
2020-03-15 14:00:00 19.9 24 Norte 34 Noroeste 0 1015.8 -1.1 62
2020-03-15 13:00:00 20.1 19 Noroeste 30 Norte 0 1016.4 -0.5 55
2020-03-15 12:00:00 21 21 Norte 37 Norte 0 1016.5 0 53
2020-03-15 11:00:00 20 18 Norte 32 Norte 0 1016.9 1.1 53
2020-03-15 10:00:00 19.1 21 Norte 31 Norte 0 1016.9 1.6 61
2020-03-15 09:00:00 18.1 15 Norte 27 Norte 0 1016.5 1.5 60
2020-03-15 08:00:00 17.3 18 Norte 27 Norte 0 1015.8 1 66
2020-03-15 07:00:00 16.5 8 Norte 24 Norte 0 1015.3 0.6 68
2020-03-15 06:00:00 16.6 19 Norte 29 Norte 0 1015 -0.2 71
2020-03-15 05:00:00 16.6 16 Norte 25 Noroeste 0 1014.8 -0.8 65
2020-03-15 04:00:00 16.9 15 Norte 23 Norte 0 1014.7 -1.3 72
2020-03-15 03:00:00 16.8 13 Norte -- -- 0 1015.2 -1.1 71
2020-03-15 02:00:00 16.6 -- -- -- -- 0 1015.6 -1 75
2020-03-15 01:00:00 15.1 -- -- -- -- 0 1016 -0.9 79
2020-03-15 00:00:00 16 -- -- -- -- 0 1016.3 -0.3 77
2020-03-14 23:00:00 16.6 17 Norte 23 Nordeste 0 1016.6 0.7 75
2020-03-14 22:00:00 16.4 13 Norte 25 Nordeste 0 1016.9 1.3 73
2020-03-14 21:00:00 16.9 14 Norte 23 Norte 0 1016.6 1.1 72
2020-03-14 20:00:00 17 17 Norte 27 Norte 0 1015.9 0.4 72
2020-03-14 19:00:00 17.4 21 Norte 31 Noroeste 0 1015.6 0.1 72
2020-03-14 18:00:00 18.5 15 Norte 23 Norte 0 1015.5 0 63
2020-03-14 17:00:00 19.5 15 Norte 28 Nordeste 0 1015.5 -0.6 59
2020-03-14 16:00:00 19.8 18 Norte 31 Nordeste 0 1015.5 -1.1 54
2020-03-14 15:00:00 20.9 21 Norte 32 Nordeste 0 1015.5 -1.8 54
2020-03-14 14:00:00 20.6 22 Nordeste 33 Nordeste 0 1016.1 -1.6 51
2020-03-14 13:00:00 20 22 Norte 36 Nordeste 0 1016.6 -1.2 56
2020-03-14 12:00:00 20.1 23 Nordeste 32 Nordeste 0 1017.3 -0.4 62
2020-03-14 11:00:00 19.5 19 Norte 33 Nordeste 0 1017.7 0.4 65
2020-03-14 10:00:00 18.7 19 Norte 28 Norte 0 1017.8 0.9 66
2020-03-14 09:00:00 18.3 19 Noroeste 32 Noroeste 0 1017.7 1.1 57
2020-03-14 08:00:00 17.7 19 Norte 33 Norte 0 1017.3 0.9 60
2020-03-14 07:00:00 17.2 23 Norte 31 Norte 0 1016.9 0.4 68
2020-03-14 06:00:00 17 21 Norte 32 Norte 0 1016.6 -0.4 67
2020-03-14 05:00:00 17 21 Nordeste 31 Nordeste 0 1016.4 -0.9 72
2020-03-14 04:00:00 17 21 Nordeste 35 Norte 0 1016.5 -1.3 71
2020-03-14 03:00:00 17.3 22 Nordeste 34 Nordeste 0 1017 -1.2 66
2020-03-14 02:00:00 17.1 19 Nordeste 27 Nordeste 0 1017.3 -1.3 78
2020-03-14 01:00:00 17.1 21 Nordeste 33 Nordeste 0 1017.8 -0.8 76
2020-03-14 00:00:00 17.2 24 Nordeste 33 Nordeste 0 1018.2 -0.1 78
2020-03-13 23:00:00 17.2 24 Nordeste 33 Nordeste 0 1018.6 1 77
2020-03-13 22:00:00 17.2 22 Nordeste 32 Nordeste 0 1018.6 1.5 75
2020-03-13 21:00:00 17.4 23 Nordeste 32 Nordeste 0 1018.3 1.5 72
2020-03-13 20:00:00 17.8 25 Nordeste 33 Norte 0 1017.6 0.9 73
2020-03-13 19:00:00 18 25 Norte 35 Nordeste 0 1017.1 0.3 70
2020-03-13 18:00:00 19 24 Norte 34 Norte 0 1016.8 -0.2 69
2020-03-13 17:00:00 19.7 21 Nordeste 36 Norte 0 1016.7 -0.9 67
2020-03-13 16:00:00 20.2 27 Nordeste 37 Nordeste 0 1016.8 -1.5 63
2020-03-13 15:00:00 20.5 -- -- -- -- 0 1017 -1.9 63
2020-03-13 14:00:00 21.1 28 Nordeste 36 Nordeste 0 1017.6 -1.3 60
2020-03-13 13:00:00 22 29 Nordeste 36 Nordeste 0 1018.3 -0.5 57
2020-03-13 12:00:00 20.8 29 Nordeste 38 Nordeste 0 1018.9 0.4 61
2020-03-13 11:00:00 20.4 27 Nordeste 39 Nordeste 0 1018.9 1 62
2020-03-13 10:00:00 19.2 26 Nordeste 35 Norte 0 1018.8 1.4 66
2020-03-13 09:00:00 18.2 26 Nordeste 36 Nordeste 0 1018.5 1.6 70
2020-03-13 08:00:00 17.7 21 Nordeste 31 Nordeste 0 1017.9 1.3 75
2020-03-13 07:00:00 17.2 21 Nordeste 31 Nordeste 0 1017.4 0.9 77
2020-03-13 06:00:00 17.1 18 Nordeste 27 Nordeste 0 1016.9 -0.1 78
2020-03-13 05:00:00 17.2 20 Nordeste 30 Nordeste 0 1016.6 -0.7 78
2020-03-13 04:00:00 17.3 25 Nordeste 35 Nordeste 0 1016.5 -1.1 79
2020-03-13 03:00:00 17.2 24 Nordeste 36 Nordeste 0 1017 -0.7 78
2020-03-13 02:00:00 17.3 27 Nordeste 37 Nordeste 0 1017.3 -0.4 81
2020-03-13 01:00:00 17.3 29 Nordeste 40 Nordeste 0 1017.6 0.4 84
2020-03-13 00:00:00 17.2 31 Nordeste 42 Nordeste 0 1017.7 0.9 85
2020-03-12 23:00:00 17.1 32 Nordeste 44 Nordeste 0 1017.7 1 87
2020-03-12 22:00:00 17.2 36 Nordeste 42 Nordeste 0 1017.2 0.7 88
2020-03-12 21:00:00 17.2 31 Nordeste 40 Nordeste 0 1016.8 0.4 89
2020-03-12 20:00:00 17.5 26 Nordeste 36 Nordeste 0 1016.7 0.6 88
2020-03-12 19:00:00 18.1 26 Nordeste 34 Nordeste 0 1016.5 0.6 84
2020-03-12 18:00:00 19.6 29 Nordeste 36 Nordeste 0 1016.4 0.5 77
2020-03-12 17:00:00 20.6 30 Nordeste 40 Nordeste 0 1016.1 -0.3 74
2020-03-12 16:00:00 21.2 32 Nordeste 42 Nordeste 0 1015.9 -1.2 71
2020-03-12 15:00:00 21.6 33 Nordeste 40 Nordeste 0 1015.9 -1.6 71
2020-03-12 14:00:00 22 32 Nordeste 41 Nordeste 0 1016.4 -1.3 71
2020-03-12 13:00:00 21.9 30 Nordeste 39 Nordeste 0 1017.1 -0.3 71
2020-03-12 12:00:00 21.5 30 Nordeste 37 Nordeste 0 1017.5 0.8 73
2020-03-12 11:00:00 20.9 26 Nordeste 39 Nordeste 0 1017.7 1.4 75
2020-03-12 10:00:00 19.8 26 Nordeste 32 Nordeste 0 1017.4 1.9 80
2020-03-12 09:00:00 18.8 28 Nordeste 35 Nordeste 0 1016.7 1.3 86
2020-03-12 08:00:00 17.6 23 Nordeste 39 Nordeste 0 1016.3 0.9 92
2020-03-12 07:00:00 16.9 34 Nordeste 41 Nordeste 0 1015.5 0.3 90
2020-03-12 06:00:00 16.9 27 Nordeste 35 Norte 0 1015.4 -0.3 93
2020-03-12 05:00:00 17.3 24 Nordeste 43 Nordeste 0 1015.4 -0.7 86
2020-03-12 04:00:00 17.3 31 Nordeste 41 Nordeste 0 1015.2 -1.3 88
2020-03-12 03:00:00 17.2 30 Nordeste 45 Nordeste 0 1015.7 -1.3 90
2020-03-12 02:00:00 17 35 Nordeste 42 Nordeste 0 1016.1 -0.9 100
2020-03-12 01:00:00 16.8 23 Nordeste 30 Nordeste 0 1016.5 -0.4 100
2020-03-12 00:00:00 16.6 20 Nordeste 26 Nordeste 0 1017 0.4 100
2020-03-11 23:00:00 16.6 19 Nordeste 24 Nordeste 0 1017 0.8 100
2020-03-11 22:00:00 16.7 17 Nordeste 25 Nordeste 0 1016.9 1.1 100
2020-03-11 21:00:00 17 19 Nordeste 24 Nordeste 0 1016.6 0.9 100
2020-03-11 20:00:00 17.4 19 Nordeste 29 Nordeste 0 1016.2 0.6 96
2020-03-11 19:00:00 17.9 -- -- -- -- 0 1015.8 0.2 91
2020-03-11 18:00:00 19.2 25 Nordeste -- -- 0 1015.7 -0.2 83
2020-03-11 17:00:00 20.4 -- -- -- -- 0 1015.6 -0.4 78
2020-03-11 16:00:00 21.4 -- -- -- -- 0 1015.6 -0.8 73
2020-03-11 15:00:00 21.7 -- -- -- -- 0 1015.9 -1 72
2020-03-11 14:00:00 21.7 -- -- -- -- 0 1016 -1.2 71
2020-03-11 13:00:00 21.1 -- -- -- -- 0 1016.4 -0.9 73
2020-03-11 12:00:00 20.9 32 Nordeste 41 Nordeste 0 1016.9 -0.1 72
2020-03-11 11:00:00 20.7 32 Nordeste 40 Nordeste 0 1017.2 0.5 72
2020-03-11 10:00:00 19.9 10 Este 27 Nordeste 0 1017.3 0.9 73
2020-03-11 09:00:00 18.8 6 Sudeste 29 Nordeste 0 1017 0.7 73
2020-03-11 08:00:00 17.2 12 Nordeste 31 Nordeste 0 1016.7 0.6 83
2020-03-11 07:00:00 16.3 24 Nordeste 34 Nordeste 0 1016.4 0.1 87
2020-03-11 06:00:00 16.3 22 Nordeste 33 Nordeste 0 1016.3 -0.4 86
2020-03-11 05:00:00 16.5 26 Nordeste 36 Nordeste 0 1016.1 -1.4 84
2020-03-11 04:00:00 16.7 27 Nordeste 39 Nordeste 0 1016.3 -1.6 84
2020-03-11 03:00:00 16.7 27 Nordeste 35 Nordeste 0 1016.7 -1.5 85
2020-03-11 02:00:00 16.8 21 Nordeste 28 Nordeste 0 1017.5 -1.1 87
2020-03-11 01:00:00 16.7 18 Nordeste 27 Nordeste 0 1017.9 -0.4 87
2020-03-11 00:00:00 16.6 18 Nordeste 25 Nordeste 0 1018.2 0 87
2020-03-10 23:00:00 17.1 19 Nordeste 31 Nordeste 0 1018.6 0.7 86
2020-03-10 22:00:00 17.1 22 Nordeste 31 Nordeste 0 1018.3 0.6 86
2020-03-10 21:00:00 17.2 18 Nordeste 28 Nordeste 0 1018.2 0.9 86
2020-03-10 20:00:00 17.6 18 Nordeste 27 Nordeste 0 1017.9 0.5 83
2020-03-10 19:00:00 18.1 19 Nordeste 28 Nordeste 0 1017.7 0.2 79
2020-03-10 18:00:00 19.5 22 Nordeste 30 Nordeste 0 1017.3 -0.7 73
2020-03-10 17:00:00 20.6 22 Nordeste 29 Nordeste 0 1017.4 -1.4 69
2020-03-10 16:00:00 21.2 23 Nordeste 31 Nordeste 0 1017.5 -1.9 66
2020-03-10 15:00:00 21.5 24 Nordeste 33 Nordeste 0 1018 -1.7 66
2020-03-10 14:00:00 21.5 21 Nordeste 30 Nordeste 0 1018.8 -0.5 65
2020-03-10 13:00:00 22.3 23 Nordeste 35 Nordeste 0 1019.4 -0.3 64
2020-03-10 12:00:00 21.8 26 Nordeste 45 Nordeste 0 1019.7 0.2 64
2020-03-10 11:00:00 21.3 35 Nordeste 42 Nordeste 0 1019.3 0.3 67
2020-03-10 10:00:00 20.6 28 Nordeste 35 Nordeste 0 1019.7 1 69
2020-03-10 09:00:00 19.4 23 Nordeste 31 Nordeste 0 1019.5 1.1 75
2020-03-10 08:00:00 17.6 18 Nordeste 27 Nordeste 0 1019 0.4 84
2020-03-10 07:00:00 16.1 14 Nordeste 30 Nordeste 0 1018.7 -0.2 91
2020-03-10 06:00:00 16.3 18 Nordeste 24 Nordeste 0 1018.4 -1 92
2020-03-10 05:00:00 16 16 Nordeste 26 Nordeste 0 1018.6 -1.3 92
2020-03-10 04:00:00 16.3 19 Nordeste 29 Nordeste 0 1018.9 -1.6 92
2020-03-10 03:00:00 16.4 23 Nordeste 36 Nordeste 0 1019.4 -1.4 90
2020-03-10 02:00:00 16.4 26 Nordeste 37 Nordeste 0 1019.9 -1.3 87
2020-03-10 01:00:00 16.6 30 Nordeste 41 Nordeste 0 1020.5 -0.8 86
2020-03-10 00:00:00 16.7 30 Nordeste 41 Nordeste 0 1020.8 0 85
2020-03-09 23:00:00 16.9 30 Nordeste 38 Nordeste 0 1021.2 1 83
2020-03-09 22:00:00 17.2 26 Nordeste 36 Nordeste 0 1021.3 1.1 84
2020-03-09 21:00:00 17.4 30 Nordeste 40 Nordeste 0 1020.8 0.5 86
2020-03-09 20:00:00 17.6 31 Nordeste 38 Nordeste 0 1020.2 0.1 84
2020-03-09 19:00:00 18 29 Nordeste 36 Nordeste 0 1020.2 0 84
2020-03-09 18:00:00 19.1 31 Nordeste 42 Nordeste 0 1020.3 -0.6 78
2020-03-09 17:00:00 20.3 34 Nordeste -- -- 0 1020.1 -1.5 74
2020-03-09 16:00:00 21.3 -- -- -- -- 0 1020.2 -2.2 71
2020-03-09 15:00:00 21.6 -- -- -- -- 0 1020.9 -2 70
2020-03-09 14:00:00 22 -- -- -- -- 0 1021.6 -1.3 67
2020-03-09 13:00:00 22.1 32 Nordeste 40 Nordeste 0 1022.4 -0.3 68
2020-03-09 12:00:00 21.9 31 Nordeste 38 Nordeste 0 1022.9 0.8 70
2020-03-09 11:00:00 21.3 27 Nordeste 34 Nordeste 0 1022.9 1.3 71
2020-03-09 10:00:00 20.4 27 Nordeste 36 Nordeste 0 1022.7 1.6 75
2020-03-09 09:00:00 19.1 31 Nordeste 37 Nordeste 0 1022.1 1.8 80
2020-03-09 08:00:00 17.4 26 Nordeste 35 Nordeste 0 1021.6 2.4 88
2020-03-09 07:00:00 17.1 27 Nordeste 36 Nordeste 0 1021.1 1.7 89
2020-03-09 06:00:00 17.1 26 Nordeste 42 Nordeste 0 1020.3 0.6 90
2020-03-09 05:00:00 17.1 31 Nordeste 44 Nordeste 0 1019.2 -1.1 89
2020-03-09 04:00:00 17.3 27 Nordeste 43 Nordeste 0 1019.4 -1.6 82
2020-03-09 03:00:00 17.2 27 Nordeste 48 Nordeste 0 1019.7 -1.5 85
2020-03-09 02:00:00 17.3 37 Nordeste 51 Nordeste 0 1020.3 -1.1 86
2020-03-09 01:00:00 17.6 41 Nordeste 53 Nordeste 0 1021 -0.3 87
2020-03-09 00:00:00 17.5 35 Nordeste 48 Nordeste 0 1021.2 0.8 92
2020-03-08 23:00:00 17.6 30 Nordeste 43 Nordeste 0 1021.4 1.9 91
2020-03-08 22:00:00 17.8 30 Nordeste 39 Nordeste 0 1021.3 2.1 91
2020-03-08 21:00:00 17.6 30 Nordeste 40 Nordeste 0 1020.4 1.6 92
2020-03-08 20:00:00 17.7 28 Nordeste 37 Nordeste 0 1019.5 1 89
2020-03-08 19:00:00 18.2 28 Nordeste 39 Nordeste 0 1019.2 0.8 84
2020-03-08 18:00:00 19.4 31 Nordeste 42 Nordeste 0 1018.8 0.1 76
2020-03-08 17:00:00 20.6 -- -- -- -- 0 1018.5 -0.9 72
2020-03-08 16:00:00 21.4 -- -- -- -- 0 1018.4 -1.4 70
2020-03-08 15:00:00 21.6 -- -- -- -- 0 1018.7 -1.5 69
2020-03-08 14:00:00 21.8 -- -- -- -- 0 1019.4 -0.7 67
2020-03-08 13:00:00 21.8 -- -- -- -- 0 1019.8 0.6 67
2020-03-08 12:00:00 21.5 26 Nordeste -- -- 0 1020.2 1.7 70
2020-03-08 11:00:00 19.7 28 Nordeste 40 Nordeste 0 1020.1 2.4 76
2020-03-08 10:00:00 20 31 Nordeste 43 Nordeste 0 1019.2 2.2 77
2020-03-08 09:00:00 18.4 31 Nordeste 44 Nordeste 0 1018.5 1.9 84
2020-03-08 08:00:00 17.3 33 Nordeste 41 Nordeste 0 1017.7 1.5 88
2020-03-08 07:00:00 16.9 26 Nordeste 35 Nordeste 0 1017 1.1 91
2020-03-08 06:00:00 16.9 25 Nordeste 34 Nordeste 0 1016.6 0.6 91
2020-03-08 05:00:00 16.9 24 Nordeste 32 Nordeste 0 1016.2 0.3 91
2020-03-08 04:00:00 17.1 26 Nordeste 38 Nordeste 0 1015.9 -0.2 91
2020-03-08 03:00:00 17.3 29 Nordeste 42 Nordeste 0 1016 -0.4 89
2020-03-08 02:00:00 17.4 35 Nordeste 46 Nordeste 0 1015.9 -0.7 89
2020-03-08 01:00:00 17.4 34 Nordeste 45 Nordeste 0 1016.1 -0.5 88
2020-03-08 00:00:00 17.4 33 Nordeste 47 Nordeste 0 1016.4 -0.2 88
2020-03-07 23:00:00 17.4 37 Nordeste 48 Nordeste 0 1016.6 0.5 87
2020-03-07 22:00:00 17.4 36 Nordeste 44 Nordeste 0 1016.6 1 85
2020-03-07 21:00:00 17.4 31 Nordeste 41 Nordeste 0 1016.6 1 83
2020-03-07 20:00:00 17.6 31 Nordeste 41 Nordeste 0 1016.1 0.6 80
2020-03-07 19:00:00 18 31 Nordeste 41 Nordeste 0 1015.6 0 74
2020-03-07 18:00:00 19 30 Nordeste -- -- 0 1015.6 -0.2 68
2020-03-07 17:00:00 19.8 -- -- -- -- 0 1015.5 -0.8 64
2020-03-07 16:00:00 20.6 -- -- -- -- 0 1015.6 -2.1 59
2020-03-07 15:00:00 21.1 -- -- -- -- 0 1015.8 -2.5 60
2020-03-07 14:00:00 21.3 -- -- -- -- 0 1016.3 -2.8 59
2020-03-07 13:00:00 21 -- -- -- -- 0 1017.7 -1.2 59
2020-03-07 12:00:00 20.8 -- -- -- -- 0 1018.3 0 60
2020-03-07 11:00:00 19.5 32 Nordeste 45 Nordeste 0 1019.1 1.9 63
2020-03-07 10:00:00 18.8 35 Nordeste 48 Nordeste 0 1018.9 2.6 66
2020-03-07 09:00:00 17.6 38 Nordeste 51 Nordeste 0 1018.3 2 71
2020-03-07 08:00:00 16.9 37 Nordeste 52 Nordeste 0 1017.2 0.7 75
2020-03-07 07:00:00 16.6 41 Nordeste 53 Nordeste 0 1016.3 0.1 75
2020-03-07 06:00:00 16.5 37 Nordeste 54 Nordeste 0 1016.3 -0.9 74
2020-03-07 05:00:00 16.6 35 Nordeste 56 Nordeste 0 1016.5 -1.5 73
2020-03-07 04:00:00 16.9 42 Nordeste 57 Nordeste 0 1016.2 -2.4 72
2020-03-07 03:00:00 17.2 37 Nordeste 54 Nordeste 0 1017.2 -1.9 69
2020-03-07 02:00:00 16.9 39 Nordeste 51 Nordeste 0 1018 -1.4 69
2020-03-07 01:00:00 16.9 37 Nordeste 53 Norte 0 1018.6 -1.1 69
2020-03-07 00:00:00 17 36 Nordeste 54 Nordeste 0 1019.1 -0.4 69
2020-03-06 23:00:00 17.2 37 Nordeste 57 Norte 0 1019.4 0.3 66
2020-03-06 22:00:00 17.1 37 Nordeste 55 Norte 0 1019.7 0.7 68
2020-03-06 21:00:00 17.1 37 Norte 50 Norte 0 1019.5 0.6 69
2020-03-06 20:00:00 17.1 39 Norte 51 Nordeste 0 1019.1 0.2 67
2020-03-06 19:00:00 17.4 38 Nordeste 55 Nordeste 0 1019 0 64
2020-03-06 18:00:00 18.2 41 Nordeste 57 Norte 0 1018.9 -0.4 62
2020-03-06 17:00:00 19.2 42 Nordeste 59 Nordeste 0 1018.9 -1.4 60
2020-03-06 16:00:00 20.6 40 Nordeste 61 Nordeste 0 1019 -2.1 54
2020-03-06 15:00:00 20.7 44 Nordeste 62 Nordeste 0 1019.3 -2.4 50
2020-03-06 14:00:00 20.9 44 Nordeste 62 Norte 0 1020.3 -1.6 53
2020-03-06 13:00:00 20.6 44 Nordeste 67 Nordeste 0 1021.1 -1.1 58
2020-03-06 12:00:00 20 47 Nordeste 62 Nordeste 0 1021.7 0.2 53
2020-03-06 11:00:00 19.6 45 Nordeste 60 Nordeste 0 1021.9 1.1 62
2020-03-06 10:00:00 18.3 43 Nordeste 62 Nordeste 0 1022.2 1.6 58
2020-03-06 09:00:00 17.7 44 Nordeste 59 Nordeste 0 1021.5 1.2 62
2020-03-06 08:00:00 16.8 41 Nordeste 56 Nordeste 0 1020.8 0.6 64
2020-03-06 07:00:00 16.6 37 Nordeste 59 Nordeste 0 1020.6 0 67
2020-03-06 06:00:00 17 40 Norte 54 Nordeste 0 1020.3 -0.5 69
2020-03-06 05:00:00 16.7 38 Norte 55 Norte 0 1020.2 -1 68
2020-03-06 04:00:00 17.1 34 Norte 48 Norte 0 1020.6 -1 72
2020-03-06 03:00:00 17.2 33 Norte 49 Norte 0 1020.8 -1.1 85
2020-03-06 02:00:00 16.5 33 Nordeste 55 Norte 0 1021.2 -0.9 97
2020-03-06 01:00:00 17.4 32 Nordeste 49 Norte 0.2 1021.6 -0.5 87
2020-03-06 00:00:00 17.3 33 Nordeste 49 Norte 0 1021.9 -0.1 89
2020-03-05 23:00:00 18.5 23 Nordeste 44 Norte 0 1022.1 0.7 82
2020-03-05 22:00:00 18.5 28 Nordeste 40 Nordeste 0 1022.1 1.2 82
2020-03-05 21:00:00 18.4 28 Norte 42 Nordeste 0 1022 1.5 80
2020-03-05 20:00:00 18.1 30 Norte 42 Norte 0 1021.4 1 78
2020-03-05 19:00:00 18.3 29 Nordeste 39 Nordeste 0 1020.9 0.6 75
2020-03-05 18:00:00 18.8 28 Nordeste 42 Nordeste 0 1020.5 -0.1 71
2020-03-05 17:00:00 19.3 28 Nordeste 39 Nordeste 0 1020.4 -0.5 66
2020-03-05 16:00:00 19.2 27 Norte 41 Nordeste 0 1020.3 -1.3 72
2020-03-05 15:00:00 19.9 29 Nordeste 40 Nordeste 0 1020.6 -1.3 68
2020-03-05 14:00:00 20.1 29 Nordeste 39 Nordeste 0 1020.9 -1.3 67
2020-03-05 13:00:00 19.9 29 Nordeste 39 Nordeste 0 1021.6 -0.3 67
2020-03-05 12:00:00 20 27 Nordeste 40 Nordeste 0 1021.9 0.7 67
2020-03-05 11:00:00 19.4 27 Nordeste 40 Norte 0 1022.2 1.8 67
2020-03-05 10:00:00 18.9 25 Nordeste 36 Nordeste 0 1021.9 2 73
2020-03-05 09:00:00 18 26 Nordeste 34 Nordeste 0 1021.2 2 75
2020-03-05 08:00:00 17.4 21 Norte 31 Norte 0 1020.4 1.5 80
2020-03-05 07:00:00 17.1 21 Nordeste 33 Nordeste 0 1019.9 0.8 80
2020-03-05 06:00:00 17.1 23 Nordeste 33 Nordeste 0 1019.2 -0.3 83
2020-03-05 05:00:00 17 23 Nordeste 32 Norte 0 1018.9 -0.9 83
2020-03-05 04:00:00 17 20 Nordeste 29 Nordeste 0 1019.1 -1.1 84
2020-03-05 03:00:00 17.1 23 Norte 33 Norte 0 1019.5 -1 83
2020-03-05 02:00:00 17.3 24 Nordeste 37 Nordeste 0 1019.8 -1 85
2020-03-05 01:00:00 17.5 24 Nordeste 33 Nordeste 0 1020.2 -0.6 84
2020-03-05 00:00:00 17.8 20 Nordeste 33 Nordeste 0 1020.5 0.2 83
2020-03-04 23:00:00 17.9 23 Nordeste 34 Norte 0 1020.8 1.5 82
2020-03-04 22:00:00 18.1 23 Nordeste 36 Nordeste 0 1020.8 2.2 83
2020-03-04 21:00:00 18.1 26 Nordeste 38 Nordeste 0 1020.3 1.5 86
2020-03-04 20:00:00 17.9 27 Nordeste 36 Nordeste 0 1019.3 0.7 88
2020-03-04 19:00:00 18.2 28 Nordeste -- -- 0 1018.6 -0.2 86
2020-03-04 18:00:00 19.5 -- -- -- -- 0 1018.8 -0.1 79
2020-03-04 17:00:00 20.7 -- -- -- -- 0 1018.6 -0.8 73
2020-03-04 16:00:00 21.3 -- -- -- -- 0 1018.8 -1.4 70
2020-03-04 15:00:00 21.6 -- -- -- -- 0 1018.9 -2.1 70
2020-03-04 14:00:00 22.2 -- -- -- -- 0 1019.4 -2 67
2020-03-04 13:00:00 22.2 -- -- -- -- 0 1020.2 -0.9 66
2020-03-04 12:00:00 21.8 -- -- -- -- 0 1021 0.2 69
2020-03-04 11:00:00 21.2 -- -- -- -- 0 1021.4 1.2 71
2020-03-04 10:00:00 20.4 27 Nordeste 33 Nordeste 0 1021.1 1.1 75
2020-03-04 09:00:00 19.2 23 Nordeste 30 Nordeste 0 1020.8 1.2 82
2020-03-04 08:00:00 16.9 16 Nordeste 22 Nordeste 0 1020.2 0.4 93
2020-03-04 07:00:00 16.3 14 Nordeste 22 Nordeste 0 1020 0.1 94
2020-03-04 06:00:00 16.3 19 Nordeste 30 Nordeste 0 1019.6 -0.8 92
2020-03-04 05:00:00 16.4 24 Nordeste 31 Nordeste 0 1019.8 -1.4 91
2020-03-04 04:00:00 16.5 26 Nordeste 33 Nordeste 0 1019.9 -2.1 91
2020-03-04 03:00:00 16.4 23 Nordeste 30 Nordeste 0 1020.4 -2 92
2020-03-04 02:00:00 16.4 19 Nordeste 30 Nordeste 0 1021.2 -1.7 91
2020-03-04 01:00:00 16 13 Norte 21 Norte 0 1022 -0.4 93
2020-03-04 00:00:00 16.5 15 Norte 23 Nordeste 0 1022.4 0 92
2020-03-03 23:00:00 16.5 14 Nordeste 22 Nordeste 0 1022.9 1.2 91
2020-03-03 22:00:00 17 17 Nordeste 28 Nordeste 0 1022.4 0.9 91
2020-03-03 21:00:00 17.3 17 Nordeste 24 Nordeste 0 1022.4 1.3 89
2020-03-03 20:00:00 17.5 18 Nordeste -- -- 0 1021.7 1.1 87
2020-03-03 19:00:00 18.2 -- -- -- -- 0 1021.5 1 84
2020-03-03 18:00:00 19.7 20 Nordeste -- -- 0 1021.1 0.1 76
2020-03-03 17:00:00 21 24 Nordeste 39 Norte 0 1020.6 -1.3 70
2020-03-03 16:00:00 21.3 30 Norte 41 Norte 0 1020.5 -2.1 67
2020-03-03 15:00:00 21.5 30 Norte 41 Norte 0 1021 -1.9 65
2020-03-03 14:00:00 22.2 27 Nordeste -- -- 0 1021.9 -1 63
2020-03-03 13:00:00 21.7 26 Nordeste 39 Nordeste 0 1022.6 -0.1 65
2020-03-03 12:00:00 21.5 27 Nordeste -- -- 0 1022.9 0.6 65
2020-03-03 11:00:00 19.9 29 Nordeste -- -- 0 1022.9 1.2 70
2020-03-03 10:00:00 19.6 -- -- -- -- 0 1022.7 1.7 74
2020-03-03 09:00:00 18.8 25 Nordeste 36 Nordeste 0 1022.3 1.7 77
2020-03-03 08:00:00 18 26 Nordeste 36 Nordeste 0 1021.7 1.1 79
2020-03-03 07:00:00 17.7 26 Nordeste 38 Nordeste 0 1021 0.2 81
2020-03-03 06:00:00 17.6 27 Nordeste 36 Nordeste 0 1020.6 -0.4 80
2020-03-03 05:00:00 17.4 22 Nordeste 30 Norte 0 1020.6 -1.2 86
2020-03-03 04:00:00 16.7 15 Norte 29 Norte 0 1020.8 -1.4 87
2020-03-03 03:00:00 17.2 20 Norte 28 Norte 0 1021 -1.3 84
2020-03-03 02:00:00 17 15 Norte 22 Norte 0 1021.8 -0.6 86
2020-03-03 01:00:00 17.3 15 Norte 26 Norte 0 1022.2 -0.3 87
2020-03-03 00:00:00 17 15 Norte 22 Norte 0 1022.3 0 90
2020-03-02 23:00:00 17.1 14 Nordeste 22 Norte 0 1022.4 0.7 90
2020-03-02 22:00:00 17.1 16 Norte 23 Norte 0 1022.5 1.3 87
2020-03-02 21:00:00 17.5 15 Nordeste 22 Norte 0 1022.3 1.4 87
2020-03-02 20:00:00 17.8 18 Norte -- -- 0 1021.7 0.6 84
2020-03-02 19:00:00 18.3 19 Nordeste -- -- 0 1021.2 0.1 81
2020-03-02 18:00:00 19.6 24 Norte 33 Norte 0 1020.9 -0.2 75
2020-03-02 17:00:00 20.5 25 Norte -- -- 0 1021.1 -0.6 70
2020-03-02 16:00:00 20.4 -- -- -- -- 0 1021.1 -1.2 72
2020-03-02 15:00:00 22.1 -- -- -- -- 0 1021.1 -1.9 62
2020-03-02 14:00:00 21.8 25 Nordeste -- -- 0 1021.7 -1.5 64
2020-03-02 13:00:00 22.3 -- -- -- -- 0 1022.3 -0.7 63
2020-03-02 12:00:00 22.6 -- -- -- -- 0 1023 0.7 61
2020-03-02 11:00:00 21.7 -- -- -- -- 0 1023.2 1.4 67
2020-03-02 10:00:00 20.5 19 Norte 28 Norte 0 1023 2 72
2020-03-02 09:00:00 19 14 Norte -- -- 0 1022.3 1.8 81
2020-03-02 08:00:00 16.5 13 Norte 17 Norte 0 1021.8 1.2 92
2020-03-02 07:00:00 16.3 12 Norte 22 Norte 0 1021 0.3 91
2020-03-02 06:00:00 16.4 13 Norte 20 Norte 0 1020.5 -0.6 92
2020-03-02 05:00:00 17.1 10 Norte 19 Norte 0 1020.6 -0.9 91
2020-03-02 04:00:00 16.3 11 Norte 18 Norte 0 1020.7 -1 93
2020-03-02 03:00:00 16.9 10 Norte 15 Norte 0 1021.1 -1.1 94
2020-03-02 02:00:00 16.5 12 Norte 15 Norte 0 1021.5 -0.8 93
2020-03-02 01:00:00 16.6 12 Norte 22 Norte 0 1021.7 -0.1 90
2020-03-02 00:00:00 17.5 14 Norte 24 Norte 0 1022.2 1 88
2020-03-01 23:00:00 17.4 14 Norte 21 Norte 0 1022.3 1.6 91
2020-03-01 22:00:00 17.8 15 Norte 22 Norte 0 1021.8 1.6 88
2020-03-01 21:00:00 17.6 12 Norte 18 Norte 0 1021.2 1.1 86
2020-03-01 20:00:00 18.2 13 Norte -- -- 0 1020.7 0.8 84
2020-03-01 19:00:00 18.4 -- -- -- -- 0 1020.2 0.4 83
2020-03-01 18:00:00 19.4 -- -- -- -- 0 1020.1 0.2 74
2020-03-01 17:00:00 19.9 18 Norte -- -- 0 1019.9 -0.5 70
2020-03-01 16:00:00 20.2 -- -- -- -- 0 1019.8 -0.9 72
2020-03-01 15:00:00 20.5 19 Norte 31 Nordeste 0 1019.9 -1.6 68
2020-03-01 14:00:00 20.9 16 Nordeste -- -- 0 1020.4 -1.4 66
2020-03-01 13:00:00 22.3 -- -- -- -- 0 1020.7 -1 62
2020-03-01 12:00:00 21.7 17 Nordeste 30 Nordeste 0 1021.5 -0.1 61
2020-03-01 11:00:00 21.3 16 Nordeste -- -- 0 1021.8 0.1 61
2020-03-01 10:00:00 20.6 -- -- -- -- 0 1021.7 0.2 64
2020-03-01 09:00:00 18.8 -- -- -- -- 0 1021.6 0.6 69
2020-03-01 08:00:00 17.9 -- -- -- -- 0 1021.7 1 72
2020-03-01 07:00:00 17.4 18 Norte 30 Norte 0 1021.5 0.8 74
2020-03-01 06:00:00 17.2 15 Norte 22 Nordeste 0 1021 -0.1 76
2020-03-01 05:00:00 17.1 13 Norte -- -- 0 1020.7 -1 78
2020-03-01 04:00:00 16.6 -- -- -- -- 0 1020.7 -1.5 80
2020-03-01 03:00:00 17.3 13 Norte 24 Nordeste 0 1021.1 -1.6 76
2020-03-01 02:00:00 17.5 15 Norte -- -- 0 1021.7 -1 76
2020-03-01 01:00:00 17.4 -- -- -- -- 0 1022.2 -0.2 76
2020-03-01 00:00:00 17.2 -- -- -- -- 0 1022.7 0.8 80
2020-02-29 23:00:00 16.4 -- -- -- -- 0 1022.7 1.3 83
2020-02-29 22:00:00 16 -- -- -- -- 0 1022.4 1.4 81
2020-02-29 21:00:00 16.9 -- -- -- -- 0 1021.9 1.4 78
2020-02-29 20:00:00 17.5 -- -- -- -- 0 1021.4 1 75
2020-02-29 19:00:00 17.9 21 Norte 30 Nordeste 0 1021 0.8 72
2020-02-29 18:00:00 18.5 22 Norte -- -- 0 1020.5 0.1 69
2020-02-29 17:00:00 19.6 -- -- -- -- 0 1020.4 -0.7 65
2020-02-29 16:00:00 20.4 23 Nordeste 36 Nordeste 0 1020.2 -1.5 61
2020-02-29 15:00:00 20.8 22 Nordeste 36 Nordeste 0 1020.4 -1.5 60
2020-02-29 14:00:00 21 21 Norte 34 Nordeste 0 1021.1 -1.2 58
2020-02-29 13:00:00 21.8 23 Nordeste 32 Nordeste 0 1021.7 -0.8 54
2020-02-29 12:00:00 21.1 22 Nordeste -- -- 0 1021.9 -0.1 56
2020-02-29 11:00:00 20.5 -- -- -- -- 0 1022.3 1.2 58
2020-02-29 10:00:00 19.3 20 Nordeste 31 Nordeste 0 1022.5 1.8 63
2020-02-29 09:00:00 18.3 20 Nordeste 30 Nordeste 0 1022 1.8 66
2020-02-29 08:00:00 17.5 18 Nordeste 27 Norte 0 1021.1 1.1 69
2020-02-29 07:00:00 17.3 15 Nordeste 24 Norte 0 1020.7 0.6 71
2020-02-29 06:00:00 16.8 16 Nordeste 24 Nordeste 0 1020.2 -0.4 73
2020-02-29 05:00:00 17.1 17 Norte 26 Norte 0 1020 -0.8 72
2020-02-29 04:00:00 17.2 17 Norte 24 Norte 0 1020.1 -0.8 71
2020-02-29 03:00:00 17.4 15 Norte 21 Norte 0 1020.6 -0.5 70
2020-02-29 02:00:00 17.1 14 Norte 24 Norte 0 1020.8 -0.4 72
2020-02-29 01:00:00 17.1 11 Norte 20 Noroeste 0 1020.9 -0.1 73
2020-02-29 00:00:00 17 14 Norte 24 Noroeste 0 1021.1 1.2 73
2020-02-28 23:00:00 17.4 16 Norte 26 Norte 0 1021.2 2 73
2020-02-28 22:00:00 17.4 14 Noroeste 21 Noroeste 0 1021 2.4 73
2020-02-28 21:00:00 17.2 10 Noroeste 17 Noroeste 0 1019.9 1.7 73
2020-02-28 20:00:00 17.2 9 Noroeste 14 Noroeste 0 1019.2 1.5 73
2020-02-28 19:00:00 18 10 Noroeste -- -- 0 1018.6 0.7 69
2020-02-28 18:00:00 19.5 13 Oeste 18 Noroeste 0 1018.2 -0.1 64
2020-02-28 17:00:00 20.2 13 Oeste 19 Oeste 0 1017.7 -1.1 61
2020-02-28 16:00:00 21 10 Oeste 22 Oeste 0 1017.9 -1.2 58
2020-02-28 15:00:00 20.9 -- -- -- -- 0 1018.3 -1.5 58
2020-02-28 14:00:00 20.5 12 Oeste 21 Oeste 0 1018.8 -1.2 60
2020-02-28 13:00:00 20.7 10 Oeste -- -- 0 1019.1 -0.9 59
2020-02-28 12:00:00 20.2 -- -- -- -- 0 1019.8 0.6 60
2020-02-28 11:00:00 19.8 -- -- -- -- 0 1020 1.5 62
2020-02-28 10:00:00 18.9 -- -- -- -- 0 1020 1.9 70
2020-02-28 09:00:00 17.4 5 Sur 9 Sur 0 1019.2 1.4 78
2020-02-28 08:00:00 14 2 Sudoeste 5 Sudoeste 0 1018.5 0.5 92
2020-02-28 07:00:00 14.3 3 Sudoeste 4 Norte 0 1018.1 0.3 90
2020-02-28 06:00:00 13.6 0 Calma 4 Norte 0 1017.8 -0.3 86
2020-02-28 05:00:00 13.9 2 Sudoeste 6 Norte 0 1018 -0.3 89
2020-02-28 04:00:00 14 3 Norte 8 Norte 0 1017.8 -0.7 88
2020-02-28 03:00:00 13.3 6 Noroeste -- -- 0 1018.1 -0.6 88
2020-02-28 02:00:00 13.4 -- -- -- -- 0 1018.3 -0.6 87
2020-02-28 01:00:00 13.6 6 Norte 9 Norte 0 1018.5 -0.4 84
2020-02-28 00:00:00 15 9 Norte 14 Norte 0 1018.7 0.1 81